Portada
METAR-TAF:

METAR-TAF

Aeroports :

Palembang, Indonèsia

latitud: 02-54S, longitud: 104-42E, altitud: 10 m

Observació

L'informe es va fer fa 1 hora i 38 minuts, a les 12:00 UTC
Vent 6 kt del Sud-Est
Temperatura 29°C
Humitat 74%
Pressió 1007 hPa
Visibilitat 10 km o més
Escasses núvols a una alçada de 1000 ft

METAR: WIPP 141200Z 14006KT 9999 FEW010 29/24 Q1007

Hora: 20:38 (13:38 UTC)

Pronòstic

L'informe es va fer fa 2 hores i 38 minuts, a les 11:00 UTC
Pronòstic vàlid del 14 a les 12 UTC al 15 a les 12 UTC
Vent 6 kt del Sud/Sud-Est
Visibilitat 10 km o més
Núvols disperses a una alçada de 1000 ft
Temporalment
l' 12 a les 21 UTC al 12 a les 24 UTC
Visibilitat: 3000 m
boirina
Temporalment
l' 13 a les 06 UTC al 13 a les 10 UTC
Visibilitat: 3000 m
Cel ennuvolat a una alçada de 1000 ft
Escasses núvols a una alçada de 1100 ft, Cumulonimbus.
pluja

TAF: WIPP 141100Z 1412/1512 16006KT 9999 SCT010 TEMPO 1221/1224 3000 BR TEMPO 1306/1310 3000 -RA BKN010 FEW011CB

Observacions i pronòstics meteorològics de més de 4000 aeroports (METAR i TAF).

Les estacions disponibles són els punts grocs i vermells al mapa.

Posi el ratolí al punt desitjat per veure el nom de l'estació.

Feu clic per veure les observacions i els pronòstics meteorològics.

Per canviar el mapa: feu clic els botons verds amb una creu de color negre per apropar; al botó verd amb un guió per allunyar la imatge; o en les fletxes verdes per a mapes adjacents.


METAR-TAF: